createdAt,value
2022-11-08T00:00:51.629Z,8.37
2022-11-08T00:03:58.387Z,8.40
2022-11-08T00:07:22.995Z,8.41
2022-11-08T00:10:45.288Z,8.42
2022-11-08T00:14:03.286Z,8.42
2022-11-08T00:17:10.327Z,8.44
2022-11-08T00:20:16.125Z,8.47
2022-11-08T00:23:25.645Z,8.51
2022-11-08T00:26:31.480Z,8.48
2022-11-08T00:29:38.585Z,8.50
2022-11-08T00:32:44.754Z,8.49
2022-11-08T00:35:51.245Z,8.48
2022-11-08T00:38:59.639Z,8.46
2022-11-08T00:42:08.835Z,8.46
2022-11-08T00:45:14.479Z,8.46
2022-11-08T00:48:21.403Z,8.49
2022-11-08T00:51:29.824Z,8.48
2022-11-08T00:54:39.322Z,8.47
2022-11-08T00:58:00.841Z,8.45
2022-11-08T01:01:13.303Z,8.46
2022-11-08T01:04:21.505Z,8.47
2022-11-08T01:07:28.011Z,8.47
2022-11-08T01:10:36.432Z,8.46
2022-11-08T01:13:43.217Z,8.44
2022-11-08T01:16:48.847Z,8.45
2022-11-08T01:19:55.327Z,8.44
2022-11-08T01:23:00.956Z,8.42
2022-11-08T01:26:13.969Z,8.41
2022-11-08T01:29:19.633Z,8.38
2022-11-08T01:32:26.060Z,8.37
2022-11-08T01:35:33.826Z,8.36
2022-11-08T01:38:40.359Z,8.37
2022-11-08T01:41:48.716Z,8.36
2022-11-08T01:45:03.307Z,8.38
2022-11-08T01:48:09.126Z,8.39
2022-11-08T01:51:19.900Z,8.41
2022-11-08T01:54:31.785Z,8.40
2022-11-08T01:57:47.308Z,8.41
2022-11-08T02:00:53.379Z,8.37
2022-11-08T02:04:03.310Z,8.36
2022-11-08T02:07:10.600Z,8.33
2022-11-08T02:10:17.112Z,8.29
2022-11-08T02:13:28.322Z,8.24
2022-11-08T02:16:34.911Z,8.20
2022-11-08T02:19:46.049Z,8.16
2022-11-08T02:22:59.741Z,8.13
2022-11-08T02:26:09.630Z,8.10
2022-11-08T02:29:30.661Z,8.11
2022-11-08T02:32:41.221Z,8.08
2022-11-08T02:35:51.849Z,8.06
2022-11-08T02:39:00.853Z,8.04
2022-11-08T02:42:10.584Z,8.01
2022-11-08T02:45:17.241Z,8.00
2022-11-08T02:48:23.732Z,7.97
2022-11-08T02:51:30.248Z,7.96
2022-11-08T02:54:35.900Z,7.95
2022-11-08T02:57:45.155Z,7.97
2022-11-08T03:00:51.230Z,7.96
2022-11-08T03:03:57.715Z,7.93
2022-11-08T03:07:03.340Z,7.90
2022-11-08T03:10:10.876Z,7.89
2022-11-08T03:13:19.536Z,7.84
2022-11-08T03:16:26.128Z,7.79
2022-11-08T03:19:31.716Z,7.74
2022-11-08T03:22:38.189Z,7.69
2022-11-08T03:25:44.028Z,7.67
2022-11-08T03:28:53.312Z,7.67
2022-11-08T03:31:58.948Z,7.67
2022-11-08T03:35:07.184Z,7.65
2022-11-08T03:38:12.784Z,7.65
2022-11-08T03:41:19.241Z,7.62
2022-11-08T03:44:27.903Z,7.59
2022-11-08T03:47:34.393Z,7.58
2022-11-08T03:50:40.024Z,7.57
2022-11-08T03:53:46.482Z,7.55
2022-11-08T03:56:52.374Z,7.54
2022-11-08T04:00:03.071Z,7.53
2022-11-08T04:03:17.172Z,7.52
2022-11-08T04:06:23.849Z,7.52
2022-11-08T04:09:29.452Z,7.50
2022-11-08T04:12:51.814Z,7.46
2022-11-08T04:16:01.186Z,7.43
2022-11-08T04:19:23.949Z,7.35
2022-11-08T04:22:29.594Z,7.25
2022-11-08T04:25:36.059Z,7.15
2022-11-08T04:28:42.909Z,7.05
2022-11-08T04:31:52.161Z,6.96
2022-11-08T04:34:57.849Z,6.85
2022-11-08T04:38:06.041Z,6.74
2022-11-08T04:41:14.671Z,6.69
2022-11-08T04:44:21.361Z,6.66
2022-11-08T04:47:36.006Z,6.61
2022-11-08T04:50:45.400Z,6.51
2022-11-08T04:53:51.168Z,6.44
2022-11-08T04:56:57.617Z,6.33
2022-11-08T05:00:03.900Z,6.28
2022-11-08T05:03:13.133Z,6.22
2022-11-08T05:06:21.209Z,6.20
2022-11-08T05:09:27.746Z,6.19
2022-11-08T05:12:33.461Z,6.17
2022-11-08T05:15:40.070Z,6.16
2022-11-08T05:18:48.941Z,6.15
2022-11-08T05:22:11.405Z,6.14
2022-11-08T05:25:18.004Z,6.13
2022-11-08T05:28:24.975Z,6.13
2022-11-08T05:31:30.671Z,6.13
2022-11-08T05:34:39.972Z,6.15
2022-11-08T05:37:45.675Z,6.17
2022-11-08T05:40:52.358Z,6.17
2022-11-08T05:43:58.628Z,6.16
2022-11-08T05:47:08.148Z,6.14
2022-11-08T05:53:50.769Z,6.19
2022-11-08T05:56:56.451Z,6.21
2022-11-08T06:00:04.239Z,6.21
2022-11-08T06:03:20.959Z,6.23
2022-11-08T06:06:31.995Z,6.23
2022-11-08T06:09:37.646Z,6.24
2022-11-08T06:12:44.736Z,6.28
2022-11-08T06:15:52.080Z,6.30
2022-11-08T06:18:58.619Z,6.32
2022-11-08T06:22:07.117Z,6.34
2022-11-08T06:25:13.871Z,6.34
2022-11-08T06:28:19.544Z,6.34
2022-11-08T06:31:26.003Z,6.33
2022-11-08T06:34:31.599Z,6.34
2022-11-08T06:37:41.138Z,6.37
2022-11-08T06:40:47.747Z,6.40
2022-11-08T06:43:54.223Z,6.44
2022-11-08T06:47:00.214Z,6.48
2022-11-08T06:50:10.729Z,6.55
2022-11-08T06:53:19.347Z,6.57
2022-11-08T06:56:25.945Z,6.60
2022-11-08T06:59:32.386Z,6.64
2022-11-08T07:02:38.997Z,6.70
2022-11-08T07:05:45.009Z,6.75
2022-11-08T07:08:54.357Z,6.82
2022-11-08T07:12:00.289Z,6.90
2022-11-08T07:15:09.676Z,7.02
2022-11-08T07:18:18.084Z,7.15
2022-11-08T07:21:25.036Z,7.28
2022-11-08T07:24:33.522Z,7.41
2022-11-08T07:27:40.002Z,7.52
2022-11-08T07:30:45.692Z,7.62
2022-11-08T07:33:52.154Z,7.71
2022-11-08T07:36:58.179Z,7.72
2022-11-08T07:40:10.158Z,7.88
2022-11-08T07:43:16.792Z,8.01
2022-11-08T07:46:24.011Z,8.15
2022-11-08T07:49:29.647Z,8.25
2022-11-08T07:52:36.234Z,8.36
2022-11-08T07:55:45.064Z,8.49
2022-11-08T07:58:53.366Z,8.55
2022-11-08T08:01:59.000Z,8.72
2022-11-08T08:05:08.403Z,8.79
2022-11-08T08:08:15.829Z,8.95
2022-11-08T08:11:29.442Z,9.08
2022-11-08T08:14:38.243Z,9.17
2022-11-08T08:17:44.932Z,9.29
2022-11-08T08:20:50.670Z,9.39
2022-11-08T08:23:57.184Z,9.49
2022-11-08T08:27:08.667Z,9.57
2022-11-08T08:30:15.572Z,9.66
2022-11-08T08:33:28.461Z,9.74
2022-11-08T08:36:36.348Z,9.81
2022-11-08T08:39:42.301Z,9.88
2022-11-08T08:42:51.602Z,9.97
2022-11-08T08:45:57.759Z,10.01
2022-11-08T08:49:04.522Z,10.14
2022-11-08T08:52:10.169Z,10.22
2022-11-08T08:55:16.687Z,10.30
2022-11-08T08:58:25.337Z,10.39
2022-11-08T09:04:40.373Z,10.49
2022-11-08T09:07:47.043Z,10.54
2022-11-08T09:10:56.640Z,10.63
2022-11-08T09:14:06.365Z,10.71
2022-11-08T09:17:12.077Z,10.76
2022-11-08T09:20:19.007Z,10.82
2022-11-08T09:23:24.646Z,10.90
2022-11-08T09:26:31.167Z,10.99
2022-11-08T09:29:40.022Z,11.07
2022-11-08T09:33:00.123Z,11.15
2022-11-08T09:36:11.322Z,11.22
2022-11-08T09:39:18.802Z,11.26
2022-11-08T09:42:42.569Z,11.34
2022-11-08T09:45:56.164Z,11.41
2022-11-08T09:49:06.327Z,11.50
2022-11-08T09:52:22.863Z,11.55
2022-11-08T09:55:35.038Z,11.60
2022-11-08T09:58:46.165Z,11.68
2022-11-08T10:01:54.675Z,11.74
2022-11-08T10:05:06.038Z,11.82
2022-11-08T10:08:20.366Z,11.91
2022-11-08T10:11:49.045Z,12.00
2022-11-08T10:15:13.630Z,12.09
2022-11-08T10:18:40.164Z,12.15
2022-11-08T10:21:56.783Z,12.22
2022-11-08T10:25:06.381Z,12.25
2022-11-08T10:28:17.999Z,12.33
2022-11-08T10:31:24.872Z,12.41
2022-11-08T10:34:42.144Z,12.49
2022-11-08T10:37:53.595Z,12.58
2022-11-08T10:41:03.971Z,12.67
2022-11-08T10:44:16.179Z,12.75
2022-11-08T10:47:27.239Z,12.80
2022-11-08T10:50:49.019Z,12.90
2022-11-08T10:53:54.673Z,12.97
2022-11-08T10:57:01.183Z,13.05
2022-11-08T11:00:20.772Z,13.12
2022-11-08T11:03:29.988Z,13.19
2022-11-08T11:06:38.585Z,13.26
2022-11-08T11:09:45.260Z,13.33
2022-11-08T11:12:56.162Z,13.39
2022-11-08T11:16:06.470Z,13.48
2022-11-08T11:19:18.677Z,13.58
2022-11-08T11:22:32.465Z,13.69
2022-11-08T11:25:38.494Z,13.77
2022-11-08T11:29:17.845Z,13.85
2022-11-08T11:32:26.816Z,13.92
2022-11-08T11:35:45.901Z,14.03
2022-11-08T11:39:01.196Z,14.09
2022-11-08T11:42:43.715Z,14.21
2022-11-08T11:45:50.338Z,14.27
2022-11-08T11:49:03.470Z,14.33
2022-11-08T11:52:17.826Z,14.42
2022-11-08T11:55:34.494Z,14.52
2022-11-08T11:58:59.716Z,14.55
2022-11-08T12:02:33.478Z,14.61
2022-11-08T12:05:57.736Z,14.63
2022-11-08T12:09:19.150Z,14.61
2022-11-08T12:12:41.391Z,14.65
2022-11-08T12:15:54.951Z,14.71
2022-11-08T12:19:19.055Z,14.77
2022-11-08T12:22:47.643Z,14.83
2022-11-08T12:25:59.882Z,14.85
2022-11-08T12:29:32.758Z,14.93
2022-11-08T12:32:58.859Z,14.94
2022-11-08T12:36:17.126Z,14.96
2022-11-08T12:39:33.545Z,14.98
2022-11-08T12:43:03.702Z,14.98
2022-11-08T12:46:18.484Z,15.00
2022-11-08T12:49:39.728Z,15.02
2022-11-08T12:52:58.444Z,15.02
2022-11-08T12:56:08.676Z,15.03
2022-11-08T12:59:24.225Z,15.06
2022-11-08T13:02:37.187Z,15.08
2022-11-08T13:05:48.769Z,15.11
2022-11-08T13:09:06.109Z,15.11
2022-11-08T13:12:33.455Z,15.13
2022-11-08T13:15:40.152Z,15.13
2022-11-08T13:18:53.542Z,15.14
2022-11-08T13:22:00.025Z,15.16
2022-11-08T13:25:28.249Z,15.14
2022-11-08T13:28:42.915Z,15.16
2022-11-08T13:31:55.589Z,15.16
2022-11-08T13:35:12.238Z,15.16
2022-11-08T13:38:30.868Z,15.16
2022-11-08T13:42:06.873Z,15.15
2022-11-08T13:45:28.164Z,15.16
2022-11-08T13:48:41.066Z,15.16
2022-11-08T13:51:51.700Z,15.16
2022-11-08T13:54:58.226Z,15.16
2022-11-08T13:58:31.593Z,15.15
2022-11-08T14:02:03.481Z,15.11
2022-11-08T14:05:44.805Z,15.08
2022-11-08T14:09:03.390Z,15.03
2022-11-08T14:12:16.802Z,15.01
2022-11-08T14:15:29.735Z,14.95
2022-11-08T14:18:39.412Z,14.97
2022-11-08T14:21:50.826Z,14.95
2022-11-08T14:25:12.076Z,14.90
2022-11-08T14:28:29.550Z,14.91
2022-11-08T14:31:36.826Z,14.84
2022-11-08T14:34:43.491Z,14.81
2022-11-08T14:37:49.287Z,14.77
2022-11-08T14:41:04.736Z,14.72
2022-11-08T14:44:19.089Z,14.67
2022-11-08T14:47:30.522Z,14.61
2022-11-08T14:50:38.026Z,14.58
2022-11-08T14:53:49.919Z,14.52
2022-11-08T14:56:58.596Z,14.44
2022-11-08T15:00:12.573Z,14.34
2022-11-08T15:03:22.332Z,14.26
2022-11-08T15:06:34.238Z,14.19
2022-11-08T15:09:40.417Z,14.11
2022-11-08T15:12:50.008Z,14.04
2022-11-08T15:15:58.605Z,13.94
2022-11-08T15:19:21.379Z,13.85
2022-11-08T15:22:29.517Z,13.75
2022-11-08T15:25:38.390Z,13.64
2022-11-08T15:28:57.817Z,13.55
2022-11-08T15:32:06.838Z,13.43
2022-11-08T15:35:25.729Z,13.35
2022-11-08T15:38:37.603Z,13.27
2022-11-08T15:41:44.311Z,13.19
2022-11-08T15:45:09.932Z,13.10
2022-11-08T15:48:23.936Z,13.01
2022-11-08T15:51:30.375Z,12.89
2022-11-08T15:54:35.997Z,12.79
2022-11-08T15:57:45.802Z,12.69
2022-11-08T16:00:54.290Z,12.62
2022-11-08T16:04:00.723Z,12.54
2022-11-08T16:07:07.569Z,12.44
2022-11-08T16:10:14.635Z,12.36
2022-11-08T16:13:24.632Z,12.29
2022-11-08T16:16:35.194Z,12.27
2022-11-08T16:19:40.903Z,12.21
2022-11-08T16:22:47.701Z,12.17
2022-11-08T16:25:56.070Z,12.15
2022-11-08T16:29:03.372Z,12.12
2022-11-08T16:32:12.965Z,12.06
2022-11-08T16:35:19.759Z,11.99
2022-11-08T16:38:27.811Z,11.92
2022-11-08T16:41:37.641Z,11.86
2022-11-08T16:44:45.805Z,11.82
2022-11-08T16:47:55.603Z,11.77
2022-11-08T16:51:03.434Z,11.73
2022-11-08T16:54:20.507Z,11.67
2022-11-08T16:57:34.821Z,11.60
2022-11-08T17:00:42.802Z,11.53
2022-11-08T17:03:51.457Z,11.50
2022-11-08T17:06:58.046Z,11.47
2022-11-08T17:10:03.702Z,11.47
2022-11-08T17:13:10.407Z,11.42
2022-11-08T17:16:16.682Z,11.37
2022-11-08T17:19:25.956Z,11.34
2022-11-08T17:22:31.667Z,11.31
2022-11-08T17:25:40.043Z,11.29
2022-11-08T17:28:45.690Z,11.25
2022-11-08T17:31:52.506Z,11.20
2022-11-08T17:35:00.963Z,11.12
2022-11-08T17:38:09.657Z,11.04
2022-11-08T17:41:17.324Z,10.97
2022-11-08T17:44:23.765Z,10.92
2022-11-08T17:47:30.909Z,10.87
2022-11-08T17:50:40.539Z,10.79
2022-11-08T17:53:47.037Z,10.72
2022-11-08T17:56:53.490Z,10.64
2022-11-08T17:59:59.216Z,10.56
2022-11-08T18:03:12.562Z,10.51
2022-11-08T18:06:21.103Z,10.56
2022-11-08T18:09:27.794Z,10.63
2022-11-08T18:12:33.368Z,10.69
2022-11-08T18:15:39.850Z,10.72
2022-11-08T18:18:46.695Z,10.76
2022-11-08T18:21:56.038Z,10.80
2022-11-08T18:25:03.023Z,10.81
2022-11-08T18:28:10.031Z,10.83
2022-11-08T18:31:18.644Z,10.82
2022-11-08T18:34:25.118Z,10.81
2022-11-08T18:37:34.681Z,10.80
2022-11-08T18:40:41.211Z,10.77
2022-11-08T18:43:47.601Z,10.75
2022-11-08T18:46:54.074Z,10.74
2022-11-08T18:50:03.858Z,10.73
2022-11-08T18:53:14.152Z,10.71
2022-11-08T18:56:19.729Z,10.66
2022-11-08T18:59:26.175Z,10.62
2022-11-08T19:02:31.829Z,10.59
2022-11-08T19:05:38.347Z,10.57
2022-11-08T19:08:47.607Z,10.52
2022-11-08T19:11:54.287Z,10.47
2022-11-08T19:14:59.918Z,10.43
2022-11-08T19:18:08.975Z,10.39
2022-11-08T19:21:17.634Z,10.38
2022-11-08T19:24:26.896Z,10.34
2022-11-08T19:27:32.758Z,10.33
2022-11-08T19:30:39.239Z,10.30
2022-11-08T19:33:45.098Z,10.28
2022-11-08T19:36:55.813Z,10.28
2022-11-08T19:40:06.511Z,10.27
2022-11-08T19:43:13.168Z,10.25
2022-11-08T19:46:21.422Z,10.25
2022-11-08T19:49:30.974Z,10.23
2022-11-08T19:52:38.109Z,10.24
2022-11-08T19:55:50.288Z,10.24
2022-11-08T19:58:57.043Z,10.20
2022-11-08T20:02:04.463Z,10.16
2022-11-08T20:05:12.559Z,10.15
2022-11-08T20:08:20.668Z,10.09
2022-11-08T20:11:31.705Z,10.08
2022-11-08T20:14:41.627Z,10.06
2022-11-08T20:17:48.253Z,10.03
2022-11-08T20:20:58.935Z,10.00
2022-11-08T20:24:06.407Z,9.96
2022-11-08T20:27:16.803Z,9.91
2022-11-08T20:30:22.456Z,9.86
2022-11-08T20:33:28.949Z,9.81
2022-11-08T20:36:37.616Z,9.76
2022-11-08T20:39:44.231Z,9.71
2022-11-08T20:42:52.996Z,9.66
2022-11-08T20:46:06.340Z,9.62
2022-11-08T20:49:12.167Z,9.51
2022-11-08T20:52:22.485Z,9.57
2022-11-08T20:55:29.610Z,9.56
2022-11-08T20:58:39.526Z,9.56
2022-11-08T21:01:45.193Z,9.52
2022-11-08T21:04:51.681Z,9.52
2022-11-08T21:11:24.126Z,9.47
2022-11-08T21:14:32.769Z,9.46
2022-11-08T21:17:39.187Z,9.45
2022-11-08T21:20:44.907Z,9.40
2022-11-08T21:23:52.511Z,9.35
2022-11-08T21:26:58.087Z,9.33
2022-11-08T21:30:07.889Z,9.33
2022-11-08T21:33:13.542Z,9.29
2022-11-08T21:36:20.735Z,9.30
2022-11-08T21:39:26.506Z,9.29
2022-11-08T21:42:38.025Z,9.27
2022-11-08T21:45:48.050Z,9.30
2022-11-08T21:48:57.188Z,9.26
2022-11-08T21:52:03.807Z,9.30
2022-11-08T21:55:11.773Z,9.29
2022-11-08T21:58:17.570Z,9.31
2022-11-08T22:01:30.531Z,9.30
2022-11-08T22:04:36.661Z,9.28
2022-11-08T22:07:43.196Z,9.26
2022-11-08T22:10:49.510Z,9.25
2022-11-08T22:13:55.969Z,9.24
2022-11-08T22:17:06.303Z,9.26
2022-11-08T22:20:13.606Z,9.22
2022-11-08T22:23:19.473Z,9.24
2022-11-08T22:26:25.938Z,9.24
2022-11-08T22:29:31.566Z,9.24
2022-11-08T22:32:40.853Z,9.26
2022-11-08T22:35:46.618Z,9.28
2022-11-08T22:38:53.193Z,9.28
2022-11-08T22:41:58.906Z,9.25
2022-11-08T22:45:07.646Z,9.23
2022-11-08T22:48:17.252Z,9.20
2022-11-08T22:51:23.951Z,9.16
2022-11-08T22:54:29.549Z,9.14
2022-11-08T22:57:35.983Z,9.10
2022-11-08T23:01:13.798Z,9.15
2022-11-08T23:04:39.723Z,9.14
2022-11-08T23:07:48.231Z,9.10
2022-11-08T23:11:10.994Z,9.10
2022-11-08T23:14:36.798Z,9.11
2022-11-08T23:17:43.994Z,9.11
2022-11-08T23:21:08.340Z,9.07
2022-11-08T23:24:23.543Z,9.07
2022-11-08T23:27:45.612Z,9.03
2022-11-08T23:31:07.882Z,9.02
2022-11-08T23:34:13.454Z,9.01
2022-11-08T23:37:23.180Z,9.01
2022-11-08T23:40:44.625Z,8.93
2022-11-08T23:44:06.766Z,9.00
2022-11-08T23:47:12.423Z,9.00
2022-11-08T23:50:18.930Z,8.98
2022-11-08T23:53:28.125Z,8.97
2022-11-08T23:56:34.691Z,8.91
2022-11-08T23:59:40.827Z,8.95
